Time;durP1;ratioP1;P1;durP2;ratioP2;P2;SDS_P1;SDS_P2;PMS_P1;PMS_P2;Temp;Humidity;BMP_temperature;BMP_pressure;BME280_temperature;BME280_humidity;BME280_pressure;Samples;Min_cycle;Max_cycle;Signal;HPM_P1;HPM_P2
2024/01/08 00:00:54;;;;;;;45.10;18.20;;;;;;;-6.45;43.88;100488.94;108262;1253;72554;-66
2024/01/08 00:03:22;;;;;;;40.60;18.50;;;;;;;-6.45;44.21;100489.42;108141;1254;70720;-68
2024/01/08 00:05:49;;;;;;;49.10;17.60;;;;;;;-6.40;44.05;100493.58;108152;1254;71437;-68
2024/01/08 00:08:17;;;;;;;49.80;19.70;;;;;;;-6.43;43.86;100499.61;108115;1254;61092;-66
2024/01/08 00:10:45;;;;;;;50.10;20.70;;;;;;;-6.51;44.13;100498.13;108163;1254;60391;-65
2024/01/08 00:13:12;;;;;;;54.80;21.20;;;;;;;-6.53;43.81;100494.78;108166;1254;73738;-67
2024/01/08 00:15:40;;;;;;;49.10;20.70;;;;;;;-6.64;43.18;100497.79;108073;1254;72745;-67
2024/01/08 00:18:08;;;;;;;43.30;19.40;;;;;;;-6.88;43.23;100501.11;108132;1254;71487;-66
2024/01/08 00:20:35;;;;;;;48.30;19.00;;;;;;;-7.08;43.66;100502.05;108138;1253;60439;-67
2024/01/08 00:23:03;;;;;;;51.90;19.40;;;;;;;-7.21;43.83;100505.96;108169;1254;60303;-67
2024/01/08 00:25:30;;;;;;;41.90;18.30;;;;;;;-7.28;44.17;100505.65;108127;1253;72611;-67
2024/01/08 00:27:58;;;;;;;52.20;20.70;;;;;;;-7.29;44.22;100511.42;108075;1254;70569;-67
2024/01/08 00:30:26;;;;;;;50.40;21.10;;;;;;;-7.35;44.31;100510.02;108151;1254;70726;-67
2024/01/08 00:32:53;;;;;;;50.90;20.30;;;;;;;-7.37;44.32;100515.58;108152;1254;63089;-66
2024/01/08 00:35:22;;;;;;;54.50;22.00;;;;;;;-7.45;44.57;100514.40;108081;1253;59867;-66
2024/01/08 00:37:49;;;;;;;60.00;23.10;;;;;;;-7.46;44.37;100518.95;108120;1253;72608;-66
2024/01/08 00:40:17;;;;;;;52.70;20.50;;;;;;;-7.52;44.40;100514.27;108094;1254;70038;-66
2024/01/08 00:42:45;;;;;;;49.20;20.80;;;;;;;-7.48;44.45;100512.04;108135;1254;71574;-67
2024/01/08 00:45:12;;;;;;;51.80;21.60;;;;;;;-7.46;44.65;100510.25;108124;1253;63017;-67
2024/01/08 00:47:40;;;;;;;49.60;19.70;;;;;;;-7.32;44.64;100510.13;108136;1254;60479;-67
2024/01/08 00:50:13;;;;;;;53.60;22.20;;;;;;;-7.29;44.44;100507.35;108164;1254;72679;-66
2024/01/08 00:52:41;;;;;;;43.80;21.20;;;;;;;-7.36;44.23;100511.33;108140;1254;70162;-67
2024/01/08 00:55:11;;;;;;;49.50;21.00;;;;;;;-7.34;43.77;100513.27;108040;1254;71097;-67
2024/01/08 00:57:39;;;;;;;;;;;;;;;-7.50;43.77;100513.64;108279;1253;61333;-66
2024/01/08 01:00:10;;;;;;;48.80;20.40;;;;;;;-7.58;44.05;100510.39;108182;1253;60299;-66
2024/01/08 01:02:40;;;;;;;52.60;20.30;;;;;;;-7.58;43.98;100513.66;108160;1252;73961;-66
2024/01/08 01:05:08;;;;;;;54.60;20.10;;;;;;;-7.64;44.39;100509.98;108097;1254;69176;-66
2024/01/08 01:07:36;;;;;;;56.00;21.90;;;;;;;-7.58;44.47;100509.21;108192;1254;72659;-66
2024/01/08 01:10:04;;;;;;;53.10;21.30;;;;;;;-7.58;44.85;100506.67;108178;1255;62443;-67
2024/01/08 01:12:31;;;;;;;53.30;21.60;;;;;;;-7.48;44.87;100510.98;108150;1254;60447;-65
2024/01/08 01:14:59;;;;;;;51.80;22.10;;;;;;;-7.31;44.82;100510.34;108128;1254;73901;-66
2024/01/08 01:17:27;;;;;;;49.30;19.60;;;;;;;-7.20;44.90;100508.05;108162;1253;69454;-66
2024/01/08 01:19:55;;;;;;;51.00;20.80;;;;;;;-7.23;44.31;100507.23;108331;1253;71461;-65
2024/01/08 01:22:22;;;;;;;60.40;22.80;;;;;;;-7.21;44.19;100508.21;108075;1254;60522;-66
2024/01/08 01:24:50;;;;;;;52.50;21.80;;;;;;;-7.22;43.87;100505.05;108143;1254;59260;-67
2024/01/08 01:27:17;;;;;;;60.90;22.20;;;;;;;-7.14;44.09;100507.11;108132;1254;72589;-67
2024/01/08 01:29:45;;;;;;;48.70;20.20;;;;;;;-7.14;43.94;100507.79;108115;1254;68245;-67
2024/01/08 01:32:12;;;;;;;57.60;22.20;;;;;;;-7.05;43.89;100506.45;108116;1254;73236;-66
2024/01/08 01:34:40;;;;;;;60.30;23.70;;;;;;;-7.15;43.24;100511.50;108088;1253;60520;-66
2024/01/08 01:37:07;;;;;;;49.80;21.30;;;;;;;-7.33;43.22;100514.69;108133;1253;60338;-65
2024/01/08 01:39:35;;;;;;;53.10;21.80;;;;;;;-7.35;43.12;100515.48;108110;1254;73516;-66
2024/01/08 01:42:02;;;;;;;53.60;22.50;;;;;;;-7.48;43.39;100516.48;108164;1256;70131;-66
2024/01/08 01:44:30;;;;;;;47.60;19.10;;;;;;;-7.64;43.73;100512.90;108103;1254;72050;-66
2024/01/08 01:46:58;;;;;;;50.10;21.20;;;;;;;-7.72;44.03;100516.15;108056;1254;60799;-67
2024/01/08 01:49:25;;;;;;;44.50;19.10;;;;;;;-7.64;44.42;100515.12;108090;1253;60306;-66
2024/01/08 01:51:53;;;;;;;51.90;21.30;;;;;;;-7.54;45.02;100512.98;108077;1252;73130;-66
2024/01/08 01:54:21;;;;;;;52.20;19.80;;;;;;;-7.51;44.61;100514.11;107958;1254;69287;-68
2024/01/08 01:56:51;;;;;;;47.30;20.90;;;;;;;-7.41;44.74;100508.91;108054;1256;71797;-66
2024/01/08 01:59:18;;;;;;;56.00;21.40;;;;;;;-7.30;44.76;100512.92;107998;1254;60537;-66
2024/01/08 02:01:46;;;;;;;56.70;21.80;;;;;;;-7.04;44.43;100506.48;108076;1254;60289;-65
2024/01/08 02:04:14;;;;;;;50.90;20.50;;;;;;;-6.92;44.30;100511.72;108040;1253;72739;-63
2024/01/08 02:06:43;;;;;;;51.90;21.20;;;;;;;-6.91;43.44;100511.26;108045;1254;69074;-65
2024/01/08 02:09:13;;;;;;;47.70;18.90;;;;;;;-6.82;42.92;100513.64;108066;1254;72786;-70
2024/01/08 02:11:41;;;;;;;53.70;22.00;;;;;;;-6.82;42.84;100510.74;108172;1254;61780;-66
2024/01/08 02:14:10;;;;;;;48.80;21.50;;;;;;;-6.93;42.24;100510.84;108149;1254;60386;-66
2024/01/08 02:16:38;;;;;;;51.10;21.00;;;;;;;-6.98;42.53;100505.89;108104;1254;73852;-66
2024/01/08 02:19:05;;;;;;;53.70;21.70;;;;;;;-7.00;42.28;100510.91;108124;1254;70295;-67
2024/01/08 02:21:34;;;;;;;56.60;21.80;;;;;;;-7.10;42.43;100510.31;107993;1254;73251;-66
2024/01/08 02:24:01;;;;;;;47.10;19.70;;;;;;;-7.21;42.46;100512.11;108080;1256;61352;-66
2024/01/08 02:26:29;;;;;;;49.50;20.90;;;;;;;-7.37;42.81;100516.59;107973;1254;61027;-66
2024/01/08 02:28:57;;;;;;;52.20;21.10;;;;;;;-7.39;43.39;100516.14;108119;1254;72565;-65
2024/01/08 02:31:25;;;;;;;54.60;19.70;;;;;;;-7.39;43.58;100514.98;108169;1254;69608;-66
2024/01/08 02:33:52;;;;;;;50.10;18.50;;;;;;;-7.37;43.87;100516.23;108055;1259;72665;-66
2024/01/08 02:36:20;;;;;;;51.10;20.10;;;;;;;-7.33;43.22;100517.42;108188;1254;61237;-66
2024/01/08 02:38:47;;;;;;;48.80;17.20;;;;;;;-7.22;43.59;100515.34;108084;1254;59955;-65
2024/01/08 02:41:15;;;;;;;55.00;21.80;;;;;;;-7.21;43.20;100514.67;108233;1252;72641;-68
2024/01/08 02:43:42;;;;;;;51.80;20.40;;;;;;;-7.14;43.62;100519.58;108166;1254;68424;-66
2024/01/08 02:46:10;;;;;;;50.20;19.70;;;;;;;-7.04;43.65;100519.63;107987;1253;71183;-66
2024/01/08 02:48:38;;;;;;;47.30;18.80;;;;;;;-6.92;43.37;100521.95;108083;1254;61166;-65
2024/01/08 02:51:05;;;;;;;53.40;20.80;;;;;;;-6.86;43.00;100525.80;108142;1254;59793;-66
2024/01/08 02:53:33;;;;;;;49.50;21.10;;;;;;;-6.89;42.11;100530.46;108122;1254;72443;-67
2024/01/08 02:56:00;;;;;;;50.10;20.90;;;;;;;-7.02;41.79;100537.79;108124;1254;69390;-67
2024/01/08 02:58:28;;;;;;;44.50;18.70;;;;;;;-7.13;41.98;100546.58;108238;1253;71465;-65
2024/01/08 03:00:55;;;;;;;48.00;19.00;;;;;;;-7.30;42.15;100546.72;108131;1254;61754;-64
2024/01/08 03:03:23;;;;;;;45.80;18.50;;;;;;;-7.43;42.36;100546.70;108148;1254;58994;-66
2024/01/08 03:05:51;;;;;;;36.60;14.30;;;;;;;-7.51;42.71;100549.27;108120;1254;73856;-66
2024/01/08 03:08:18;;;;;;;48.70;18.70;;;;;;;-7.57;43.30;100548.65;108017;1254;68145;-66
2024/01/08 03:10:46;;;;;;;51.20;18.80;;;;;;;-7.63;43.39;100549.61;108160;1254;72418;-67
2024/01/08 03:13:14;;;;;;;52.20;19.60;;;;;;;-7.61;43.47;100550.72;108085;1254;61658;-65
2024/01/08 03:15:41;;;;;;;55.70;18.50;;;;;;;-7.57;43.12;100555.50;108093;1253;60027;-66
2024/01/08 03:18:09;;;;;;;48.90;19.00;;;;;;;-7.53;43.24;100557.19;108184;1254;73895;-66
2024/01/08 03:20:36;;;;;;;43.10;17.00;;;;;;;-7.36;43.74;100557.71;108139;1260;69248;-67
2024/01/08 03:23:05;;;;;;;48.60;19.00;;;;;;;-7.37;43.08;100557.86;108020;1254;71609;-70
2024/01/08 03:25:33;;;;;;;43.90;18.60;;;;;;;-7.30;43.42;100558.13;108090;1253;61430;-67
2024/01/08 03:28:01;;;;;;;57.10;20.60;;;;;;;-7.11;43.52;100554.48;108128;1254;60331;-67
2024/01/08 03:30:28;;;;;;;42.60;19.40;;;;;;;-6.99;43.07;100555.33;108084;1254;72601;-67
2024/01/08 03:32:56;;;;;;;41.20;17.90;;;;;;;-7.02;42.62;100557.95;108074;1253;68945;-67
2024/01/08 03:35:24;;;;;;;46.40;18.10;;;;;;;-7.16;42.03;100559.58;108037;1254;72399;-65
2024/01/08 03:37:52;;;;;;;38.90;16.20;;;;;;;-7.29;41.75;100559.54;108053;1253;60557;-64
2024/01/08 03:40:19;;;;;;;49.30;18.30;;;;;;;-7.29;41.82;100563.96;108152;1254;60418;-66
2024/01/08 03:42:47;;;;;;;45.20;18.90;;;;;;;-7.42;41.79;100565.52;108157;1254;73100;-66
2024/01/08 03:45:15;;;;;;;39.60;16.60;;;;;;;-7.71;42.13;100567.16;107988;1254;69013;-66
2024/01/08 03:47:42;;;;;;;42.80;18.50;;;;;;;-7.88;42.24;100573.94;108165;1254;71266;-65
2024/01/08 03:50:10;;;;;;;35.00;16.10;;;;;;;-7.81;42.77;100576.10;108167;1254;61341;-66
2024/01/08 03:52:38;;;;;;;46.30;16.10;;;;;;;-7.84;42.89;100573.95;108059;1254;60397;-67
2024/01/08 03:55:07;;;;;;;39.70;16.30;;;;;;;-7.78;43.20;100576.05;108084;1254;72526;-66
2024/01/08 03:57:36;;;;;;;42.50;17.00;;;;;;;-7.63;43.33;100573.83;108125;1254;70493;-66
2024/01/08 04:00:04;;;;;;;33.60;15.50;;;;;;;-7.52;43.21;100581.48;108120;1257;71941;-66
2024/01/08 04:02:40;;;;;;;42.90;17.90;;;;;;;-7.46;42.97;100577.62;108207;1254;62794;-66
2024/01/08 04:05:11;;;;;;;41.10;16.30;;;;;;;-7.50;42.80;100578.14;108094;1254;60443;-67
2024/01/08 04:07:39;;;;;;;35.80;16.10;;;;;;;-7.46;42.64;100583.05;108112;1254;72559;-65
2024/01/08 04:10:07;;;;;;;48.20;18.00;;;;;;;-7.47;42.58;100581.30;108062;1254;68981;-63
2024/01/08 04:12:35;;;;;;;38.40;15.70;;;;;;;-7.54;42.58;100580.02;108246;1253;72696;-67
2024/01/08 04:15:03;;;;;;;44.30;16.60;;;;;;;-7.44;42.87;100577.55;108189;1254;62554;-67
2024/01/08 04:17:31;;;;;;;40.30;16.60;;;;;;;-7.57;42.14;100580.04;108176;1254;60363;-66
2024/01/08 04:19:58;;;;;;;37.00;16.00;;;;;;;-7.61;41.84;100586.16;108150;1254;71713;-66
2024/01/08 04:22:26;;;;;;;36.60;14.90;;;;;;;-7.61;42.16;100591.48;108149;1254;70762;-67
2024/01/08 04:24:54;;;;;;;95.00;32.20;;;;;;;-7.69;42.45;100591.64;108134;1254;72424;-66
2024/01/08 04:27:21;;;;;;;166.60;45.30;;;;;;;-7.78;42.21;100595.16;108198;1254;61747;-66
2024/01/08 04:29:49;;;;;;;45.60;17.30;;;;;;;-7.74;42.70;100597.02;108194;1254;60369;-66
2024/01/08 04:32:17;;;;;;;64.60;22.10;;;;;;;-7.99;42.73;100599.67;108178;1255;74236;-66
2024/01/08 04:34:45;;;;;;;38.30;14.10;;;;;;;-8.05;43.29;100605.39;108172;1254;68716;-66
2024/01/08 04:37:12;;;;;;;38.00;15.90;;;;;;;-7.98;43.27;100597.31;108200;1257;71586;-66
2024/01/08 04:39:39;;;;;;;41.90;15.70;;;;;;;-7.80;43.39;100602.05;108023;1254;62487;-66
2024/01/08 04:42:07;;;;;;;67.40;19.30;;;;;;;-7.64;43.16;100599.86;108177;1254;60303;-66
2024/01/08 04:44:34;;;;;;;48.00;16.70;;;;;;;-7.56;42.55;100599.88;108131;1254;73327;-66
2024/01/08 04:47:02;;;;;;;43.20;16.00;;;;;;;-7.34;42.89;100602.14;108129;1254;68731;-66
2024/01/08 04:49:30;;;;;;;44.20;17.40;;;;;;;-7.29;42.40;100600.85;108196;1253;72167;-66
2024/01/08 04:51:58;;;;;;;40.60;16.20;;;;;;;-7.20;42.02;100596.78;108070;1254;62487;-66
2024/01/08 04:54:26;;;;;;;38.90;16.60;;;;;;;-7.18;42.11;100597.36;108240;1259;60431;-66
2024/01/08 04:56:56;;;;;;;38.50;16.90;;;;;;;-7.23;41.70;100600.92;108278;1254;72561;-67
2024/01/08 04:59:24;;;;;;;40.40;15.70;;;;;;;-7.25;41.56;100610.57;108164;1260;72809;-66
2024/01/08 05:01:52;;;;;;;45.20;16.30;;;;;;;-7.49;41.27;100613.33;108117;1254;72333;-66
2024/01/08 05:04:19;;;;;;;29.10;13.40;;;;;;;-7.63;41.67;100619.34;108059;1254;60303;-66
2024/01/08 05:06:47;;;;;;;38.30;14.80;;;;;;;-7.76;41.65;100620.95;108122;1258;60609;-66
2024/01/08 05:09:15;;;;;;;48.60;17.00;;;;;;;-7.80;42.17;100624.58;108213;1255;73350;-66
2024/01/08 05:11:43;;;;;;;36.50;14.90;;;;;;;-7.82;42.50;100624.98;108127;1258;69748;-66
2024/01/08 05:14:14;;;;;;;31.80;14.60;;;;;;;-7.82;42.81;100618.52;108058;1254;71353;-66
2024/01/08 05:16:41;;;;;;;38.00;14.00;;;;;;;-7.86;42.87;100623.62;108036;1253;62119;-66
2024/01/08 05:19:09;;;;;;;36.30;15.20;;;;;;;-7.81;43.47;100627.77;108036;1257;60308;-66
2024/01/08 05:21:36;;;;;;;34.50;14.30;;;;;;;-7.71;42.65;100633.98;108088;1258;72389;-66
2024/01/08 05:24:05;;;;;;;49.80;16.90;;;;;;;-7.64;42.57;100638.88;108085;1254;70564;-66
2024/01/08 05:26:33;;;;;;;38.40;14.50;;;;;;;-7.55;42.79;100639.31;108134;1258;74891;-66
2024/01/08 05:29:00;;;;;;;35.30;14.90;;;;;;;-7.43;42.52;100649.23;108197;1257;61687;-67
2024/01/08 05:31:30;;;;;;;;;;;;;;;-7.46;41.91;100648.77;108175;1254;60345;-67
2024/01/08 05:33:58;;;;;;;75.60;24.80;;;;;;;-7.44;41.98;100653.59;108117;1255;73223;-66
2024/01/08 05:36:25;;;;;;;41.70;15.60;;;;;;;-7.33;42.18;100658.50;108097;1254;70803;-66
2024/01/08 05:38:53;;;;;;;42.60;15.80;;;;;;;-7.44;41.74;100664.71;108088;1254;72475;-67
2024/01/08 05:41:24;;;;;;;53.30;16.80;;;;;;;-7.64;41.51;100670.29;107962;1254;62484;-66
2024/01/08 05:43:52;;;;;;;36.20;14.90;;;;;;;-7.76;41.88;100672.48;108115;1253;60427;-67
2024/01/08 05:46:19;;;;;;;30.70;13.20;;;;;;;-7.86;42.23;100681.73;108172;1254;71846;-67
2024/01/08 05:48:47;;;;;;;32.50;14.10;;;;;;;-7.86;42.66;100684.46;108174;1255;69167;-67
2024/01/08 05:51:15;;;;;;;34.20;15.20;;;;;;;-7.82;43.14;100690.48;108149;1252;71794;-66
2024/01/08 05:53:42;;;;;;;32.30;13.70;;;;;;;-7.86;43.37;100690.44;108057;1259;62656;-66
2024/01/08 05:56:10;;;;;;;36.10;13.70;;;;;;;-7.75;43.62;100693.84;108123;1259;59530;-66
2024/01/08 05:58:37;;;;;;;31.20;13.10;;;;;;;-7.68;43.73;100692.46;108131;1254;74001;-66
2024/01/08 06:01:06;;;;;;;35.30;13.70;;;;;;;-7.58;43.77;100694.76;108113;1254;70126;-66
2024/01/08 06:03:34;;;;;;;24.30;12.60;;;;;;;-7.44;44.05;100697.13;108036;1255;71407;-67
2024/01/08 06:06:01;;;;;;;34.50;14.60;;;;;;;-7.34;43.74;100698.54;108015;1254;61715;-66
2024/01/08 06:08:29;;;;;;;43.20;15.50;;;;;;;-7.17;43.97;100699.48;108179;1254;60351;-66
2024/01/08 06:10:57;;;;;;;28.60;12.30;;;;;;;-6.95;43.36;100699.39;108130;1257;73838;-67
2024/01/08 06:13:27;;;;;;;36.90;14.30;;;;;;;-6.91;42.70;100701.61;108082;1257;70402;-67
2024/01/08 06:15:54;;;;;;;39.20;14.70;;;;;;;-6.86;42.53;100705.03;108060;1258;72774;-67
2024/01/08 06:18:22;;;;;;;30.40;13.80;;;;;;;-6.93;41.81;100709.38;108156;1254;60476;-66
2024/01/08 06:20:50;;;;;;;35.50;15.20;;;;;;;-7.11;41.14;100714.91;107953;1259;198710;-67
2024/01/08 06:25:16;;;;;;;51.20;18.90;;;;;;;-8.73;44.45;100729.15;104958;1289;600818;-66
2024/01/08 06:27:43;;;;;;;34.30;13.70;;;;;;;-7.50;41.82;100729.94;107256;1267;61870;-67
2024/01/08 06:30:12;;;;;;;32.60;13.90;;;;;;;-7.33;41.65;100731.37;107264;1264;59001;-66
2024/01/08 06:32:39;;;;;;;37.00;14.80;;;;;;;-7.24;42.04;100735.36;107278;1269;72371;-67
2024/01/08 06:35:08;;;;;;;36.20;14.20;;;;;;;-7.19;42.00;100739.84;107225;1267;69955;-68
2024/01/08 06:37:36;;;;;;;33.20;13.80;;;;;;;-7.07;42.54;100736.60;107201;1265;72764;-67
2024/01/08 06:40:06;;;;;;;33.20;14.20;;;;;;;-6.87;43.13;100735.56;107166;1267;166093;-66
2024/01/08 06:42:33;;;;;;;35.90;14.30;;;;;;;-6.71;42.52;100737.42;107351;1263;59232;-67
2024/01/08 06:45:21;;;;;;;35.10;14.20;;;;;;;-6.73;41.62;100743.67;107280;1264;72249;-67
2024/01/08 06:47:48;;;;;;;34.20;12.70;;;;;;;-6.59;41.49;100745.31;107343;1263;69205;-67
2024/01/08 06:50:16;;;;;;;33.00;14.50;;;;;;;-6.40;41.76;100746.42;107341;1263;72679;-66
2024/01/08 06:52:44;;;;;;;34.90;13.10;;;;;;;-6.23;41.65;100749.67;107330;1263;60241;-66
2024/01/08 06:55:15;;;;;;;38.10;16.10;;;;;;;-6.07;41.25;100750.65;107366;1263;59134;-67
2024/01/08 06:57:43;;;;;;;29.20;13.70;;;;;;;-6.19;39.84;100751.90;107267;1263;71732;-66
2024/01/08 07:00:11;;;;;;;31.00;13.70;;;;;;;-6.44;39.61;100756.19;107327;1269;68736;-67
2024/01/08 07:02:40;;;;;;;33.60;14.00;;;;;;;-6.70;39.63;100759.71;107533;1260;71375;-67
2024/01/08 07:05:07;;;;;;;29.40;12.90;;;;;;;-6.94;39.75;100762.05;107435;1263;60436;-66
2024/01/08 07:07:37;;;;;;;49.60;16.70;;;;;;;-7.15;39.83;100765.41;107779;1256;59340;-66
2024/01/08 07:10:05;;;;;;;47.60;17.00;;;;;;;-7.31;40.20;100766.74;107772;1256;71158;-66
2024/01/08 07:12:33;;;;;;;38.10;16.60;;;;;;;-7.42;40.20;100769.86;107794;1258;69237;-65
2024/01/08 07:15:03;;;;;;;33.90;13.20;;;;;;;-7.34;40.67;100774.14;107736;1257;72288;-66
2024/01/08 07:17:31;;;;;;;42.30;14.70;;;;;;;-7.38;41.05;100778.54;107766;1257;62602;-66
2024/01/08 07:20:00;;;;;;;36.50;15.00;;;;;;;-7.42;40.78;100782.14;107900;1257;59004;-66
2024/01/08 07:22:28;;;;;;;31.30;13.50;;;;;;;-7.46;40.78;100782.13;107764;1257;73181;-66
2024/01/08 07:24:55;;;;;;;38.40;13.40;;;;;;;-7.40;40.80;100782.40;107766;1257;69022;-66
2024/01/08 07:27:23;;;;;;;26.60;13.20;;;;;;;-7.27;40.68;100781.09;107765;1256;72663;-66
2024/01/08 07:29:50;;;;;;;49.10;15.50;;;;;;;-7.19;40.46;100779.58;107938;1257;60734;-66
2024/01/08 07:32:18;;;;;;;49.60;16.80;;;;;;;-7.16;40.29;100777.99;107747;1256;60058;-66
2024/01/08 07:34:46;;;;;;;44.20;16.60;;;;;;;-7.02;40.61;100781.90;107781;1257;71781;-66
2024/01/08 07:37:15;;;;;;;51.30;16.50;;;;;;;-6.96;40.13;100779.06;107729;1256;69901;-66
2024/01/08 07:39:43;;;;;;;38.50;14.20;;;;;;;-6.96;40.12;100781.79;107754;1262;72490;-66
2024/01/08 07:42:10;;;;;;;65.70;21.30;;;;;;;-7.09;39.89;100785.84;107777;1256;61716;-66
2024/01/08 07:44:38;;;;;;;44.90;16.70;;;;;;;-7.13;40.30;100789.58;108128;1252;60065;-66
2024/01/08 07:47:05;;;;;;;51.00;16.90;;;;;;;-6.94;40.25;100789.40;108080;1254;71852;-66
2024/01/08 07:49:33;;;;;;;42.00;14.80;;;;;;;-6.91;39.94;100793.10;108224;1254;69314;-66
2024/01/08 07:52:00;;;;;;;47.70;16.40;;;;;;;-6.94;39.86;100789.39;108139;1254;71473;-65
2024/01/08 07:54:28;;;;;;;37.10;14.70;;;;;;;-6.93;39.95;100787.56;108191;1253;61731;-67
2024/01/08 07:56:56;;;;;;;31.10;13.90;;;;;;;-6.81;40.22;100786.02;108183;1253;59522;-67
2024/01/08 07:59:29;;;;;;;33.60;12.10;;;;;;;-6.62;40.28;100785.31;108083;1254;73419;-66
2024/01/08 08:01:57;;;;;;;35.90;13.90;;;;;;;-6.45;39.85;100788.75;108150;1253;68712;-66
2024/01/08 08:04:25;;;;;;;33.10;14.00;;;;;;;-6.31;39.76;100786.98;108094;1253;71440;-66
2024/01/08 08:06:53;;;;;;;29.60;13.00;;;;;;;-6.16;40.09;100786.56;108059;1254;60380;-66
2024/01/08 08:09:20;;;;;;;29.90;13.60;;;;;;;-5.92;40.24;100788.51;108127;1253;60923;-66
2024/01/08 08:11:48;;;;;;;30.70;14.00;;;;;;;-5.54;39.99;100787.91;108107;1254;71863;-66
2024/01/08 08:14:16;;;;;;;24.90;12.80;;;;;;;-5.20;38.66;100785.95;108097;1253;70634;-67
2024/01/08 08:16:43;;;;;;;34.80;13.20;;;;;;;-5.04;38.25;100790.65;108097;1254;71672;-66
2024/01/08 08:19:11;;;;;;;29.80;14.00;;;;;;;-4.83;38.10;100785.94;108096;1254;61226;-66
2024/01/08 08:21:39;;;;;;;36.80;14.80;;;;;;;-4.79;37.24;100787.11;108122;1254;59541;-67
2024/01/08 08:24:06;;;;;;;29.00;12.60;;;;;;;-4.59;37.28;100781.33;108105;1254;71846;-67
2024/01/08 08:26:36;;;;;;;36.20;13.20;;;;;;;-4.32;36.69;100789.91;108096;1254;69348;-66
2024/01/08 08:29:04;;;;;;;43.80;15.20;;;;;;;-4.19;36.03;100789.00;108078;1254;72409;-66
2024/01/08 08:31:32;;;;;;;35.60;13.30;;;;;;;-4.26;36.18;100792.67;108142;1253;61779;-66
2024/01/08 08:34:00;;;;;;;28.20;11.80;;;;;;;-4.11;36.68;100796.46;108227;1253;62128;-67
2024/01/08 08:36:27;;;;;;;28.50;12.40;;;;;;;-3.90;36.46;100795.41;108275;1253;75232;-66
2024/01/08 08:38:56;;;;;;;22.90;9.60;;;;;;;-3.82;36.50;100793.08;108179;1253;68739;-65
2024/01/08 08:41:24;;;;;;;31.00;12.70;;;;;;;-3.70;37.08;100796.92;108231;1254;74885;-69
2024/01/08 08:43:53;;;;;;;32.90;13.40;;;;;;;-3.45;36.08;100800.59;108199;1253;61799;-67
2024/01/08 08:46:21;;;;;;;25.80;11.90;;;;;;;-3.28;35.94;100789.44;108226;1253;60055;-66
2024/01/08 08:48:49;;;;;;;47.50;15.90;;;;;;;-3.04;35.75;100791.33;108142;1253;72242;-67
2024/01/08 08:51:16;;;;;;;31.90;12.50;;;;;;;-2.82;35.54;100788.34;108240;1254;69238;-66
2024/01/08 08:53:44;;;;;;;37.60;11.70;;;;;;;-2.69;35.11;100790.60;108168;1253;73643;-67
2024/01/08 08:56:12;;;;;;;29.00;11.10;;;;;;;-2.65;34.91;100789.31;108239;1253;60503;-67
2024/01/08 08:58:40;;;;;;;23.80;10.80;;;;;;;-2.64;35.34;100786.07;108201;1254;60084;-67
2024/01/08 09:01:07;;;;;;;23.20;11.60;;;;;;;-2.66;34.51;100791.01;108154;1253;73374;-66
2024/01/08 09:03:35;;;;;;;24.60;11.10;;;;;;;-2.94;34.51;100788.86;108195;1254;69280;-67
2024/01/08 09:06:07;;;;;;;23.80;10.70;;;;;;;-3.30;34.14;100787.33;108197;1253;74883;-66
2024/01/08 09:08:35;;;;;;;26.70;11.90;;;;;;;-3.62;34.62;100789.78;108093;1257;60133;-66
2024/01/08 09:11:03;;;;;;;27.40;12.60;;;;;;;-3.85;35.38;100787.52;108100;1252;59487;-66
2024/01/08 09:13:32;;;;;;;25.30;11.80;;;;;;;-4.01;35.57;100789.23;108319;1252;75200;-66
2024/01/08 09:16:00;;;;;;;25.00;11.40;;;;;;;-4.01;36.34;100793.70;108156;1254;71581;-66
2024/01/08 09:18:27;;;;;;;24.10;11.70;;;;;;;-3.96;36.94;100784.95;108161;1253;72672;-66
2024/01/08 09:20:55;;;;;;;25.90;11.80;;;;;;;-4.00;36.71;100787.21;108171;1252;60679;-66
2024/01/08 09:23:23;;;;;;;24.50;11.50;;;;;;;-4.14;36.52;100784.70;108211;1253;62153;-66
2024/01/08 09:25:51;;;;;;;23.30;11.70;;;;;;;-4.23;36.85;100792.46;108146;1254;73140;-66
2024/01/08 09:28:18;;;;;;;26.10;11.60;;;;;;;-4.12;38.06;100789.04;108252;1254;70279;-66
2024/01/08 09:30:47;;;;;;;27.40;11.40;;;;;;;-4.04;37.07;100788.27;108301;1254;71526;-66
2024/01/08 09:33:15;;;;;;;33.20;12.20;;;;;;;-4.01;37.47;100786.99;108255;1254;62052;-68
2024/01/08 09:35:43;;;;;;;34.40;14.70;;;;;;;-3.88;36.86;100788.98;108129;1253;60136;-67
2024/01/08 09:38:11;;;;;;;44.00;15.20;;;;;;;-3.95;36.74;100785.13;108117;1254;75146;-67
2024/01/08 09:40:40;;;;;;;28.70;12.90;;;;;;;-3.89;36.76;100783.79;108226;1254;71133;-67
2024/01/08 09:43:08;;;;;;;25.20;13.30;;;;;;;-3.84;37.33;100782.59;108182;1253;72632;-67
2024/01/08 09:45:39;;;;;;;26.50;11.60;;;;;;;-3.80;36.70;100779.43;108215;1253;61637;-67
2024/01/08 09:48:07;;;;;;;25.10;11.90;;;;;;;-4.10;36.04;100779.52;108171;1253;62216;-67
2024/01/08 09:50:34;;;;;;;25.30;11.20;;;;;;;-4.39;36.34;100777.86;108153;1254;73450;-67
2024/01/08 09:53:03;;;;;;;23.70;11.50;;;;;;;-4.60;36.26;100779.38;108278;1254;69490;-67
2024/01/08 09:55:31;;;;;;;24.30;11.90;;;;;;;-4.75;36.95;100779.52;108289;1253;74888;-67
2024/01/08 09:58:01;;;;;;;22.30;10.10;;;;;;;-4.73;37.38;100779.61;107933;1253;60362;-66
2024/01/08 10:00:28;;;;;;;23.80;11.00;;;;;;;-4.84;38.20;100778.38;107907;1253;60857;-66
2024/01/08 10:02:56;;;;;;;21.60;10.40;;;;;;;-4.69;38.20;100779.41;108109;1254;73455;-67
2024/01/08 10:05:28;;;;;;;28.20;12.10;;;;;;;-4.66;37.84;100780.20;108184;1253;70932;-67
2024/01/08 10:07:59;;;;;;;24.90;11.50;;;;;;;-4.71;38.22;100774.36;108109;1254;71719;-67
2024/01/08 10:10:29;;;;;;;30.00;12.60;;;;;;;-4.66;37.98;100778.15;108126;1254;62735;-67
2024/01/08 10:12:57;;;;;;;32.30;13.20;;;;;;;-4.53;38.80;100766.75;108100;1254;60311;-67
2024/01/08 10:15:25;;;;;;;34.10;12.40;;;;;;;-4.42;38.06;100764.89;108116;1253;72511;-67
2024/01/08 10:17:54;;;;;;;28.20;11.60;;;;;;;-4.40;37.59;100767.05;108127;1254;69976;-67
2024/01/08 10:20:24;;;;;;;;;;;;;;;-4.28;37.63;100764.52;108221;1253;72936;-68
2024/01/08 10:23:06;;;;;;;30.80;11.40;;;;;;;-4.21;37.50;100764.59;108095;1256;62565;-67
2024/01/08 10:25:38;;;;;;;30.50;12.80;;;;;;;-4.09;36.87;100761.88;108099;1253;59490;-67
2024/01/08 10:28:09;;;;;;;32.40;13.50;;;;;;;-4.20;37.09;100762.20;108024;1254;72913;-66
2024/01/08 10:30:38;;;;;;;31.20;13.10;;;;;;;-4.46;37.20;100765.46;108103;1253;70512;-66
2024/01/08 10:33:07;;;;;;;27.40;11.60;;;;;;;-4.50;37.58;100763.96;107846;1254;71803;-67
2024/01/08 10:35:35;;;;;;;27.90;12.20;;;;;;;-4.38;37.70;100765.03;108149;1253;61752;-67
2024/01/08 10:38:04;;;;;;;25.20;11.10;;;;;;;-4.10;37.95;100768.36;108185;1254;61828;-67
2024/01/08 10:40:32;;;;;;;27.90;13.10;;;;;;;-3.94;37.81;100767.34;107973;1254;76029;-67
2024/01/08 10:42:59;;;;;;;25.50;11.80;;;;;;;-3.69;38.04;100767.08;108089;1254;71112;-67
2024/01/08 10:45:26;;;;;;;29.40;11.70;;;;;;;-3.32;37.86;100758.27;107947;1254;72258;-66
2024/01/08 10:48:10;;;;;;;24.00;10.80;;;;;;;-3.24;37.11;100760.02;108135;1254;63660;-66
2024/01/08 10:50:38;;;;;;;26.70;12.00;;;;;;;-3.08;37.44;100754.95;108102;1257;61969;-66
2024/01/08 10:53:09;;;;;;;25.70;10.50;;;;;;;-3.00;36.84;100758.98;108049;1254;74252;-66
2024/01/08 10:55:37;;;;;;;25.80;12.40;;;;;;;-2.70;37.20;100759.45;108143;1254;68902;-66
2024/01/08 10:58:05;;;;;;;29.20;11.30;;;;;;;-2.73;36.06;100756.46;108224;1253;71367;-67
2024/01/08 11:00:33;;;;;;;29.80;13.40;;;;;;;-2.82;36.09;100763.59;108031;1256;62817;-67
2024/01/08 11:03:01;;;;;;;31.70;13.50;;;;;;;-2.85;36.68;100765.05;108049;1253;60353;-67
2024/01/08 11:05:32;;;;;;;25.80;11.50;;;;;;;-2.94;36.69;100765.48;108092;1254;73706;-67
2024/01/08 11:08:00;;;;;;;30.10;13.20;;;;;;;-2.95;36.66;100762.56;108255;1254;69881;-66